Time;durP1;ratioP1;P1;durP2;ratioP2;P2;SDS_P1;SDS_P2;PMS_P1;PMS_P2;Temp;Humidity;BMP_temperature;BMP_pressure;BME280_temperature;BME280_humidity;BME280_pressure;Samples;Min_cycle;Max_cycle;Signal;HPM_P1;HPM_P2
2022/05/24 00:00:50;;;;;;;8.38;3.70;;;22.00;84.10;;;;;;5051212;28;20372;-75
2022/05/24 00:03:19;;;;;;;10.00;2.90;;;22.00;84.10;;;;;;5051081;28;20479;-75
2022/05/24 00:05:45;;;;;;;6.57;2.55;;;21.90;79.70;;;;;;5050412;28;20041;-75
2022/05/24 00:08:11;;;;;;;5.40;2.08;;;21.90;68.10;;;;;;5050977;28;20025;-75
2022/05/24 00:10:38;;;;;;;7.25;2.08;;;21.90;64.60;;;;;;5050789;28;20044;-75
2022/05/24 00:13:05;;;;;;;8.07;2.97;;;21.90;64.90;;;;;;5051147;28;20076;-75
2022/05/24 00:15:32;;;;;;;6.70;3.15;;;22.00;68.00;;;;;;5050596;28;20552;-75
2022/05/24 00:18:08;;;;;;;9.65;3.67;;;22.10;70.40;;;;;;5051182;28;20028;-76
2022/05/24 00:20:41;;;;;;;10.77;3.50;;;22.10;70.40;;;;;;5050789;28;20032;-75
2022/05/24 00:23:08;;;;;;;11.18;3.58;;;22.10;69.30;;;;;;5050915;28;20021;-76
2022/05/24 00:25:37;;;;;;;7.78;3.30;;;22.10;69.60;;;;;;5050883;28;20189;-75
2022/05/24 00:28:04;;;;;;;10.57;2.90;;;22.00;67.80;;;;;;5050702;28;20033;-76
2022/05/24 00:30:31;;;;;;;8.55;3.10;;;22.00;68.00;;;;;;5050681;28;20456;-74
2022/05/24 00:32:57;;;;;;;10.07;3.28;;;22.00;68.10;;;;;;5050518;28;20036;-75
2022/05/24 00:35:47;;;;;;;9.07;3.17;;;22.00;67.60;;;;;;5050951;28;20036;-75
2022/05/24 00:38:20;;;;;;;6.45;3.03;;;22.00;67.10;;;;;;5050637;28;20035;-75
2022/05/24 00:40:46;;;;;;;9.35;2.70;;;22.00;64.10;;;;;;5050653;28;20469;-75
2022/05/24 00:43:15;;;;;;;7.55;2.50;;;22.00;62.70;;;;;;5050535;28;20029;-75
2022/05/24 00:45:48;;;;;;;7.28;2.70;;;22.00;61.20;;;;;;5050505;28;20029;-75
2022/05/24 00:48:27;;;;;;;6.15;2.53;;;22.10;61.30;;;;;;5050634;28;20033;-75
2022/05/24 00:50:54;;;;;;;8.65;3.45;;;22.20;62.00;;;;;;5050552;28;20100;-75
2022/05/24 00:53:29;;;;;;;6.63;3.10;;;22.20;62.80;;;;;;5050551;28;20274;-76
2022/05/24 00:56:16;;;;;;;9.52;3.30;;;22.20;62.30;;;;;;5050630;28;20021;-76
2022/05/24 00:58:55;;;;;;;5.45;3.05;;;22.20;64.10;;;;;;5050931;28;20047;-76
2022/05/24 01:01:44;;;;;;;9.13;3.17;;;22.20;65.70;;;;;;5035305;28;20029;-75
2022/05/24 01:04:13;;;;;;;6.68;3.30;;;22.10;66.10;;;;;;5054488;28;20113;-75
2022/05/24 01:06:39;;;;;;;6.80;3.00;;;22.10;66.00;;;;;;5053844;28;20175;-76
2022/05/24 01:09:15;;;;;;;8.60;3.15;;;22.00;65.70;;;;;;5054169;28;20134;-75
2022/05/24 01:11:46;;;;;;;7.93;3.13;;;22.00;64.90;;;;;;5054300;28;20036;-76
2022/05/24 01:14:15;;;;;;;7.63;3.10;;;22.00;64.30;;;;;;5054197;28;20052;-75
2022/05/24 01:16:42;;;;;;;7.22;2.97;;;22.00;63.80;;;;;;5053884;28;20021;-76
2022/05/24 01:19:16;;;;;;;5.28;2.92;;;22.00;63.10;;;;;;5053884;28;20141;-76
2022/05/24 01:21:43;;;;;;;5.50;3.20;;;22.00;63.40;;;;;;5053966;28;20036;-75
2022/05/24 01:24:22;;;;;;;8.63;3.20;;;22.10;63.20;;;;;;5054259;28;20025;-76
2022/05/24 01:26:54;;;;;;;7.55;3.08;;;22.00;63.70;;;;;;5054008;28;20027;-76
2022/05/24 01:29:23;;;;;;;8.18;2.72;;;22.00;62.90;;;;;;5054035;28;20108;-76
2022/05/24 01:37:21;;;;;;;6.28;2.30;;;22.00;62.40;;;;;;5053914;28;20586;-75
2022/05/24 01:39:48;;;;;;;;;;;22.00;60.80;;;;;;5053664;28;20017;-76
2022/05/24 01:42:16;;;;;;;3.38;1.83;;;22.00;59.80;;;;;;5053581;28;19912;-75
2022/05/24 01:44:57;;;;;;;7.75;2.58;;;21.90;60.00;;;;;;5053105;28;20039;-75
2022/05/24 01:47:26;;;;;;;3.97;2.15;;;21.90;59.90;;;;;;5053365;28;20171;-77
2022/05/24 01:49:58;;;;;;;6.68;2.40;;;21.90;60.40;;;;;;5053359;28;20433;-76
2022/05/24 01:52:38;;;;;;;4.78;2.30;;;21.90;60.50;;;;;;5053449;28;20033;-76
2022/05/24 01:55:09;;;;;;;4.32;2.10;;;22.00;59.70;;;;;;5053325;28;20112;-76
2022/05/24 01:57:44;;;;;;;5.53;2.20;;;22.00;58.50;;;;;;5053321;28;20436;-77
2022/05/24 02:00:12;;;;;;;4.15;1.88;;;22.00;58.40;;;;;;5053182;28;20025;-76
2022/05/24 02:02:38;;;;;;;5.50;2.10;;;21.90;58.10;;;;;;5053181;28;20032;-76
2022/05/24 02:05:05;;;;;;;4.82;1.80;;;21.90;55.10;;;;;;5052987;28;20021;-76
2022/05/24 02:07:33;;;;;;;3.97;1.85;;;21.90;55.20;;;;;;5052542;28;20045;-76
2022/05/24 02:09:59;;;;;;;5.40;1.80;;;22.00;55.30;;;;;;5053131;28;20028;-76
2022/05/24 02:12:29;;;;;;;6.07;1.92;;;22.00;54.00;;;;;;5052207;28;20025;-76
2022/05/24 02:15:09;;;;;;;4.22;1.52;;;22.00;53.30;;;;;;5052754;28;20116;-76
2022/05/24 02:17:46;;;;;;;3.60;1.48;;;22.10;52.50;;;;;;5052798;28;20033;-76
2022/05/24 02:20:20;;;;;;;5.97;1.83;;;22.10;51.80;;;;;;5053188;28;20024;-76
2022/05/24 02:22:48;;;;;;;2.97;1.50;;;22.10;52.10;;;;;;5034647;28;20082;-76
2022/05/24 02:25:21;;;;;;;4.03;1.48;;;22.10;52.70;;;;;;5052768;28;20038;-76
2022/05/24 02:27:48;;;;;;;4.95;1.70;;;22.10;53.70;;;;;;5052211;28;20037;-76
2022/05/24 02:30:16;;;;;;;;;;;22.20;53.50;;;;;;5053196;28;20079;-76
2022/05/24 02:32:43;;;;;;;3.83;1.95;;;22.20;53.50;;;;;;5052474;28;20031;-75
2022/05/24 02:35:10;;;;;;;8.43;2.08;;;22.20;54.80;;;;;;5034954;28;20028;-76
2022/05/24 02:37:46;;;;;;;7.68;2.50;;;22.20;56.20;;;;;;5052228;28;20025;-75
2022/05/24 02:42:57;;;;;;;3.83;1.75;;;22.10;56.90;;;;;;5051916;28;20094;-76
2022/05/24 02:45:24;;;;;;;6.88;1.52;;;22.10;55.30;;;;;;5052133;28;20055;-75
2022/05/24 02:47:50;;;;;;;3.60;1.80;;;22.10;53.50;;;;;;5051920;28;20072;-75
2022/05/24 02:50:16;;;;;;;;;;;22.00;54.70;;;;;;5052289;28;20036;-75
2022/05/24 02:52:43;;;;;;;4.13;1.80;;;21.90;55.20;;;;;;5052028;28;19905;-75
2022/05/24 02:55:11;;;;;;;3.38;1.52;;;21.90;55.20;;;;;;5052299;28;20037;-75
2022/05/24 02:57:38;;;;;;;4.97;1.60;;;21.90;55.50;;;;;;5052237;28;20154;-75
2022/05/24 03:00:06;;;;;;;;;;;21.90;55.30;;;;;;5051178;28;20043;-75
2022/05/24 03:02:32;;;;;;;4.95;1.50;;;21.80;55.00;;;;;;5051938;28;20015;-75
2022/05/24 03:05:00;;;;;;;4.55;1.60;;;21.80;55.40;;;;;;5051988;28;20048;-75
2022/05/24 03:10:11;;;;;;;4.80;1.50;;;21.80;54.30;;;;;;5052391;28;20090;-75
2022/05/24 03:15:22;;;;;;;3.72;1.30;;;21.70;53.40;;;;;;5052225;28;20075;-75
2022/05/24 03:17:48;;;;;;;2.58;1.25;;;21.70;52.70;;;;;;5052369;28;20025;-75
2022/05/24 03:20:15;;;;;;;;;;;21.70;53.00;;;;;;5052578;28;20476;-75
2022/05/24 03:22:42;;;;;;;3.95;1.30;;;21.70;53.10;;;;;;5051633;28;19909;-75
2022/05/24 03:25:09;;;;;;;4.22;1.42;;;21.70;53.60;;;;;;5051214;28;20032;-75
2022/05/24 03:27:35;;;;;;;7.10;1.70;;;21.70;53.50;;;;;;5052167;28;20488;-75
2022/05/24 03:30:01;;;;;;;;;;;21.80;54.60;;;;;;5052582;28;20040;-74
2022/05/24 03:32:27;;;;;;;3.53;1.70;;;21.80;54.90;;;;;;5052635;28;19992;-75
2022/05/24 03:34:53;;;;;;;7.72;1.83;;;21.70;54.50;;;;;;5052154;28;20063;-75
2022/05/24 03:37:19;;;;;;;4.72;1.70;;;21.70;56.30;;;;;;5052330;28;20021;-75
2022/05/24 03:39:45;;;;;;;9.18;1.67;;;21.70;55.80;;;;;;5034088;28;20037;-75
2022/05/24 03:42:13;;;;;;;6.75;2.05;;;21.70;55.30;;;;;;5034111;28;20029;-75
2022/05/24 03:44:39;;;;;;;5.75;1.70;;;21.70;55.10;;;;;;5051818;28;20025;-75
2022/05/24 03:47:05;;;;;;;5.63;1.55;;;21.60;54.90;;;;;;5052213;28;20033;-75
2022/05/24 03:49:32;;;;;;;5.63;1.83;;;21.60;55.00;;;;;;5052409;28;20024;-76
2022/05/24 03:51:58;;;;;;;5.15;1.65;;;21.60;54.20;;;;;;5051921;28;20056;-75
2022/05/24 03:54:24;;;;;;;5.45;1.80;;;21.60;52.30;;;;;;5051858;28;20021;-75
2022/05/24 03:59:35;;;;;;;5.80;1.83;;;21.70;51.90;;;;;;5052324;28;20385;-75
2022/05/24 04:02:01;;;;;;;4.30;1.60;;;21.80;51.80;;;;;;5051737;28;20495;-74
2022/05/24 04:04:27;;;;;;;2.92;1.50;;;21.80;51.20;;;;;;5052029;28;20029;-75
2022/05/24 04:06:53;;;;;;;4.10;1.75;;;21.80;50.80;;;;;;5051388;28;20059;-75
2022/05/24 04:09:20;;;;;;;4.45;1.50;;;21.80;49.70;;;;;;5052107;28;20028;-75
2022/05/24 04:11:46;;;;;;;;;;;21.90;50.00;;;;;;5052520;28;20425;-75
2022/05/24 04:14:12;;;;;;;3.22;1.60;;;21.90;49.80;;;;;;5051607;28;19905;-75
2022/05/24 04:16:38;;;;;;;3.88;1.83;;;22.00;49.80;;;;;;5052195;28;20017;-75
2022/05/24 04:19:04;;;;;;;4.00;1.60;;;22.00;49.90;;;;;;5052585;28;20089;-75
2022/05/24 04:21:31;;;;;;;;;;;22.10;49.20;;;;;;5053232;28;20029;-74
2022/05/24 04:23:57;;;;;;;4.03;1.60;;;22.20;48.80;;;;;;5052501;28;19927;-75
2022/05/24 04:26:24;;;;;;;3.78;1.55;;;22.20;48.50;;;;;;5052350;28;20025;-74
2022/05/24 04:28:50;;;;;;;4.07;1.75;;;22.30;48.20;;;;;;5052302;28;20035;-75
2022/05/24 04:31:16;;;;;;;4.55;1.60;;;22.30;47.90;;;;;;5052787;28;20041;-74
2022/05/24 04:33:42;;;;;;;3.40;1.45;;;22.30;47.90;;;;;;5052712;28;20071;-75
2022/05/24 04:36:08;;;;;;;6.43;1.63;;;22.40;47.90;;;;;;5054913;28;20025;-75
2022/05/24 04:38:34;;;;;;;3.78;1.65;;;22.40;48.30;;;;;;5056240;28;20113;-75
2022/05/24 04:43:44;;;;;;;7.63;2.30;;;22.60;48.20;;;;;;5073815;28;20067;-75
2022/05/24 04:46:12;;;;;;;3.10;1.80;;;22.70;49.70;;;;;;5075232;28;20024;-76
2022/05/24 04:48:38;;;;;;;4.40;1.67;;;22.90;49.30;;;;;;5076819;28;20574;-74
2022/05/24 04:51:06;;;;;;;4.95;1.83;;;23.00;50.00;;;;;;5070991;28;20032;-70
2022/05/24 04:53:32;;;;;;;7.00;2.20;;;23.20;50.50;;;;;;5065526;28;20130;-75
2022/05/24 04:56:02;;;;;;;7.85;2.20;;;23.30;50.60;;;;;;5064660;28;20469;-71
2022/05/24 04:58:29;;;;;;;6.85;2.20;;;23.40;51.30;;;;;;5066483;28;20046;-73
2022/05/24 05:00:56;;;;;;;;;;;23.60;51.10;;;;;;5070679;28;20017;-75
2022/05/24 05:03:22;;;;;;;7.43;1.50;;;23.80;50.50;;;;;;5075717;28;19912;-76
2022/05/24 05:05:49;;;;;;;;;;;24.70;48.10;;;;;;5075949;28;20074;-76
2022/05/24 05:08:16;;;;;;;4.18;1.77;;;25.80;46.00;;;;;;5075906;28;19932;-75
2022/05/24 05:10:42;;;;;;;6.95;1.73;;;27.10;45.30;;;;;;5075645;28;20021;-75
2022/05/24 05:13:09;;;;;;;4.65;1.83;;;28.50;44.20;;;;;;5075611;28;20060;-76
2022/05/24 05:15:37;;;;;;;5.57;1.77;;;29.70;42.90;;;;;;5074735;28;20523;-77
2022/05/24 05:18:09;;;;;;;6.07;1.92;;;31.00;41.80;;;;;;5073797;28;20056;-76
2022/05/24 05:20:39;;;;;;;4.93;1.60;;;32.20;41.00;;;;;;5075953;28;20103;-77
2022/05/24 05:23:09;;;;;;;6.70;1.70;;;33.30;39.80;;;;;;5076301;28;20024;-77
2022/05/24 05:25:36;;;;;;;4.22;1.67;;;34.30;38.80;;;;;;5075807;28;20116;-78
2022/05/24 05:28:02;;;;;;;3.00;1.40;;;34.90;37.10;;;;;;5064537;28;20036;-77
2022/05/24 05:33:15;;;;;;;12.05;2.35;;;36.40;36.40;;;;;;5056067;28;20036;-77
2022/05/24 05:35:44;;;;;;;10.98;2.00;;;37.30;36.40;;;;;;5055764;28;20025;-74
2022/05/24 05:38:11;;;;;;;12.98;2.60;;;37.50;35.00;;;;;;5055509;28;20072;-77
2022/05/24 05:40:37;;;;;;;9.68;2.28;;;37.60;33.70;;;;;;5037352;28;20051;-78
2022/05/24 05:43:03;;;;;;;10.13;1.77;;;37.70;32.80;;;;;;5055521;28;20079;-77
2022/05/24 05:45:29;;;;;;;57.83;5.03;;;38.30;32.60;;;;;;5054964;28;20021;-78
2022/05/24 05:47:55;;;;;;;17.88;2.33;;;38.50;33.10;;;;;;5035529;28;20059;-77
2022/05/24 05:50:22;;;;;;;17.60;2.13;;;38.50;32.70;;;;;;5054239;28;20028;-76
2022/05/24 05:52:49;;;;;;;12.82;2.08;;;38.60;32.20;;;;;;5053903;28;20438;-77
2022/05/24 05:55:15;;;;;;;17.73;2.00;;;38.80;30.90;;;;;;5054219;28;20116;-77
2022/05/24 05:57:42;;;;;;;11.25;2.03;;;39.30;31.80;;;;;;5054264;28;20465;-77
2022/05/24 06:00:09;;;;;;;5.47;1.50;;;39.90;30.80;;;;;;5035472;28;20021;-77
2022/05/24 06:02:36;;;;;;;5.00;1.88;;;39.90;30.00;;;;;;5053067;28;20418;-77
2022/05/24 06:05:02;;;;;;;8.85;1.80;;;39.80;29.90;;;;;;5054256;28;20021;-78
2022/05/24 06:07:28;;;;;;;8.82;2.20;;;39.30;29.90;;;;;;5053527;28;20135;-78
2022/05/24 06:09:54;;;;;;;9.30;1.70;;;38.90;30.70;;;;;;5053617;28;20017;-80
2022/05/24 06:12:21;;;;;;;9.20;1.80;;;38.90;30.70;;;;;;5053948;28;20028;-78
2022/05/24 06:14:47;;;;;;;11.90;2.08;;;39.00;32.50;;;;;;5053309;28;20453;-78
2022/05/24 06:17:13;;;;;;;8.50;1.45;;;39.90;32.00;;;;;;5053963;28;20058;-78
2022/05/24 06:19:40;;;;;;;5.38;1.40;;;40.10;30.00;;;;;;5053850;28;20017;-78
2022/05/24 06:22:06;;;;;;;8.45;1.30;;;40.40;30.50;;;;;;5053826;28;20108;-77
2022/05/24 06:24:33;;;;;;;12.77;2.17;;;40.70;30.00;;;;;;5053864;28;20021;-77
2022/05/24 06:26:59;;;;;;;14.25;2.10;;;41.60;32.50;;;;;;5053592;28;20044;-78
2022/05/24 06:29:25;;;;;;;10.30;3.30;;;42.00;31.80;;;;;;5036230;28;20358;-85
2022/05/24 06:31:51;;;;;;;14.10;2.88;;;42.90;31.80;;;;;;5053435;28;20075;-78
2022/05/24 06:34:18;;;;;;;11.00;1.73;;;44.00;31.60;;;;;;5054162;28;20096;-79
2022/05/24 06:36:44;;;;;;;7.40;1.70;;;44.50;31.00;;;;;;5053719;28;20021;-80
2022/05/24 06:39:10;;;;;;;10.90;1.75;;;45.00;31.20;;;;;;5035463;28;20128;-80
2022/05/24 06:41:36;;;;;;;8.90;1.52;;;45.20;31.50;;;;;;5035552;28;20029;-79
2022/05/24 06:44:03;;;;;;;7.63;1.83;;;44.70;32.40;;;;;;5053443;28;20112;-80
2022/05/24 06:46:29;;;;;;;11.07;3.50;;;44.70;31.40;;;;;;5053321;28;20029;-80
2022/05/24 06:48:55;;;;;;;10.25;3.38;;;44.80;31.70;;;;;;5053595;28;20032;-79
2022/05/24 06:51:22;;;;;;;11.32;3.60;;;44.50;31.10;;;;;;5053676;28;20032;-80
2022/05/24 06:53:50;;;;;;;11.38;2.83;;;43.80;31.50;;;;;;5053811;28;20350;-80
2022/05/24 06:56:17;;;;;;;7.55;3.03;;;43.50;31.10;;;;;;5053116;28;20021;-79
2022/05/24 06:58:43;;;;;;;9.50;4.35;;;43.70;28.70;;;;;;5035146;28;20067;-79
2022/05/24 07:03:56;;;;;;;11.18;3.20;;;43.90;28.30;;;;;;5053620;28;20060;-80
2022/05/24 07:06:22;;;;;;;12.60;3.10;;;44.10;29.10;;;;;;5052677;28;20171;-80
2022/05/24 07:08:49;;;;;;;8.95;3.28;;;44.30;29.40;;;;;;5052935;28;20040;-80
2022/05/24 07:11:18;;;;;;;9.10;3.33;;;44.20;29.40;;;;;;5053270;28;20100;-80
2022/05/24 07:13:44;;;;;;;8.98;2.55;;;44.10;30.00;;;;;;5052759;28;20389;-80
2022/05/24 07:16:12;;;;;;;7.60;2.40;;;43.60;30.50;;;;;;5034816;28;20060;-77
2022/05/24 07:18:39;;;;;;;6.05;2.20;;;42.70;31.10;;;;;;5053013;28;20021;-79
2022/05/24 07:21:06;;;;;;;4.95;2.60;;;42.00;31.60;;;;;;5053046;28;20471;-79
2022/05/24 07:23:37;;;;;;;14.70;3.67;;;39.90;32.00;;;;;;5052932;28;20033;-79
2022/05/24 07:26:16;;;;;;;10.88;3.53;;;39.10;33.50;;;;;;5052248;28;20112;-79
2022/05/24 07:28:43;;;;;;;10.15;3.40;;;38.20;33.60;;;;;;5052677;28;20473;-79
2022/05/24 07:31:10;;;;;;;8.85;3.13;;;37.90;34.40;;;;;;5052283;28;20017;-79
2022/05/24 07:33:42;;;;;;;8.23;3.33;;;37.30;34.70;;;;;;5052672;28;20036;-79
2022/05/24 07:36:08;;;;;;;12.45;3.70;;;37.00;35.00;;;;;;5034382;28;20420;-79
2022/05/24 07:38:35;;;;;;;10.80;2.92;;;36.90;35.10;;;;;;5034508;28;20031;-79
2022/05/24 07:46:30;;;;;;;10.07;2.10;;;36.40;34.50;;;;;;5052193;28;20037;-80
2022/05/24 07:48:57;;;;;;;11.60;2.85;;;36.50;31.00;;;;;;5052389;28;20488;-80
2022/05/24 07:51:23;;;;;;;13.02;3.00;;;36.40;34.20;;;;;;5051843;28;20025;-79
2022/05/24 07:53:49;;;;;;;12.50;2.75;;;36.20;31.10;;;;;;5051021;28;20021;-79
2022/05/24 07:56:16;;;;;;;12.80;3.42;;;35.40;34.40;;;;;;5051294;28;20372;-80
2022/05/24 07:58:43;;;;;;;10.27;4.03;;;35.50;35.60;;;;;;5050992;28;20037;-80
2022/05/24 08:01:10;;;;;;;10.63;4.60;;;35.50;36.40;;;;;;5051230;28;20029;-80
2022/05/24 08:03:38;;;;;;;18.27;4.10;;;35.50;35.80;;;;;;5052251;28;20029;-81
2022/05/24 08:06:06;;;;;;;12.23;3.30;;;35.60;36.20;;;;;;5053285;28;20041;-79
2022/05/24 08:08:32;;;;;;;10.13;2.75;;;35.70;36.10;;;;;;5052646;28;20396;-79
2022/05/24 08:10:58;;;;;;;21.05;2.85;;;35.70;35.60;;;;;;5050655;28;20022;-80
2022/05/24 08:13:24;;;;;;;7.22;2.22;;;35.80;36.40;;;;;;5051623;28;20021;-80
2022/05/24 08:15:53;;;;;;;10.35;2.53;;;35.70;36.10;;;;;;5051138;28;20044;-80
2022/05/24 08:18:21;;;;;;;7.68;2.28;;;35.70;36.20;;;;;;5051874;28;20327;-79
2022/05/24 08:20:47;;;;;;;8.27;1.75;;;35.60;35.60;;;;;;5052276;28;20029;-80
2022/05/24 08:23:15;;;;;;;8.88;2.38;;;35.60;35.60;;;;;;5052348;28;20022;-79
2022/05/24 08:25:41;;;;;;;6.30;1.83;;;35.50;36.00;;;;;;5051700;28;20033;-79
2022/05/24 08:28:08;;;;;;;7.43;1.70;;;35.60;35.90;;;;;;5051921;28;20462;-81
2022/05/24 08:30:36;;;;;;;12.75;2.25;;;35.20;34.80;;;;;;5051889;28;20132;-80
2022/05/24 08:33:04;;;;;;;6.22;1.63;;;35.30;35.20;;;;;;5052471;28;20036;-79
2022/05/24 08:35:32;;;;;;;6.15;1.67;;;35.30;34.10;;;;;;5033824;28;20029;-80
2022/05/24 08:38:00;;;;;;;9.27;1.70;;;35.10;34.00;;;;;;5051783;28;20050;-80
2022/05/24 08:40:26;;;;;;;8.57;1.55;;;34.90;35.00;;;;;;5052971;28;20029;-79
2022/05/24 08:43:13;;;;;;;6.45;1.92;;;34.90;34.40;;;;;;5052227;28;20469;-79
2022/05/24 08:48:54;;;;;;;3.08;1.33;;;34.60;34.00;;;;;;5052218;28;20120;-80
2022/05/24 08:51:30;;;;;;;3.85;1.20;;;34.60;34.70;;;;;;5052111;28;20029;-80
2022/05/24 08:54:08;;;;;;;7.28;1.60;;;34.30;33.40;;;;;;5051824;28;20029;-80
2022/05/24 08:56:56;;;;;;;7.30;1.92;;;34.10;33.90;;;;;;5052009;28;20025;-80
2022/05/24 08:59:29;;;;;;;7.45;1.70;;;33.90;34.10;;;;;;5033591;28;20370;-79
2022/05/24 09:01:57;;;;;;;8.00;1.60;;;33.80;35.40;;;;;;5052377;28;20029;-80
2022/05/24 09:04:23;;;;;;;8.75;1.55;;;33.90;35.10;;;;;;5051684;28;20029;-80
2022/05/24 09:06:55;;;;;;;8.68;1.70;;;33.90;34.40;;;;;;5051764;28;20463;-80
2022/05/24 09:09:58;;;;;;;8.07;1.70;;;33.80;35.60;;;;;;5033487;28;20036;-79
2022/05/24 09:12:43;;;;;;;9.13;1.60;;;33.70;35.60;;;;;;5063100;28;20392;-79
2022/05/24 09:15:23;;;;;;;5.38;1.63;;;33.30;35.10;;;;;;5053356;28;20033;-80
2022/05/24 09:18:17;;;;;;;4.22;1.63;;;33.20;35.20;;;;;;5071690;28;20028;-79
2022/05/24 09:20:50;;;;;;;9.30;1.63;;;33.10;35.70;;;;;;5071487;28;20430;-80
2022/05/24 09:23:39;;;;;;;8.48;2.30;;;33.10;34.60;;;;;;5074089;28;20020;-80
2022/05/24 09:26:11;;;;;;;3.33;1.42;;;33.00;34.10;;;;;;5075365;28;20048;-80
2022/05/24 09:28:44;;;;;;;7.30;2.95;;;32.90;36.00;;;;;;5075177;28;20032;-80
2022/05/24 09:31:32;;;;;;;8.85;1.85;;;32.90;35.10;;;;;;5074816;28;20020;-79
2022/05/24 09:34:04;;;;;;;6.57;1.65;;;33.00;34.50;;;;;;5074711;28;20036;-78
2022/05/24 09:36:35;;;;;;;6.13;1.70;;;33.00;35.20;;;;;;5074709;28;20491;-79
2022/05/24 09:39:05;;;;;;;6.20;2.00;;;33.10;34.70;;;;;;5076621;28;20127;-80
2022/05/24 09:41:31;;;;;;;7.45;1.50;;;33.00;35.60;;;;;;5075133;28;20055;-80
2022/05/24 09:44:00;;;;;;;4.20;1.58;;;32.80;35.60;;;;;;5074408;28;20024;-80
2022/05/24 09:46:28;;;;;;;8.02;1.50;;;32.20;36.60;;;;;;5074576;28;20020;-80
2022/05/24 09:49:01;;;;;;;6.45;1.75;;;32.30;37.10;;;;;;5074711;28;20029;-81
2022/05/24 09:51:41;;;;;;;9.45;1.90;;;32.30;37.20;;;;;;5074614;28;20032;-80
2022/05/24 09:54:24;;;;;;;4.65;1.70;;;32.20;37.90;;;;;;5078522;28;20024;-80
2022/05/24 09:57:13;;;;;;;5.72;1.70;;;32.10;38.10;;;;;;5056324;28;20107;-81
2022/05/24 09:59:42;;;;;;;9.07;1.98;;;32.30;38.60;;;;;;5075111;28;20024;-83
2022/05/24 10:02:31;;;;;;;7.80;1.67;;;32.20;37.80;;;;;;5074558;28;20017;-80
2022/05/24 10:04:58;;;;;;;5.55;1.48;;;32.40;38.20;;;;;;5056201;28;20028;-79
2022/05/24 10:07:30;;;;;;;6.43;1.60;;;32.20;36.80;;;;;;5073715;28;20064;-80
2022/05/24 10:10:10;;;;;;;6.07;1.48;;;31.80;37.60;;;;;;5058749;28;20025;-81
2022/05/24 10:12:57;;;;;;;6.40;1.85;;;31.90;36.60;;;;;;5054494;28;20466;-81
2022/05/24 10:15:47;;;;;;;7.40;1.85;;;32.00;35.70;;;;;;5060401;28;20421;-81
2022/05/24 10:18:31;;;;;;;4.40;1.60;;;31.60;37.00;;;;;;5064425;28;20039;-82
2022/05/24 10:21:24;;;;;;;6.78;2.50;;;31.50;38.60;;;;;;5062019;28;20036;-78
2022/05/24 10:24:13;;;;;;;5.25;2.30;;;31.50;38.90;;;;;;5045987;28;20116;-78
2022/05/24 10:27:13;;;;;;;6.50;1.80;;;31.70;40.00;;;;;;5051845;28;20044;-80
2022/05/24 10:29:51;;;;;;;5.97;1.75;;;31.80;38.40;;;;;;5063702;28;20572;-81
2022/05/24 10:39:09;;;;;;;5.60;1.77;;;31.80;38.70;;;;;;5062497;28;20086;-81
2022/05/24 10:42:00;;;;;;;6.60;1.60;;;32.00;36.70;;;;;;5070995;28;20064;-80
2022/05/24 10:44:38;;;;;;;5.03;1.50;;;31.90;37.00;;;;;;5074471;28;20032;-80
2022/05/24 10:47:25;;;;;;;5.07;1.45;;;31.80;37.10;;;;;;5074240;28;20021;-81
2022/05/24 10:50:01;;;;;;;5.97;1.48;;;31.90;35.90;;;;;;5073962;28;20031;-81
2022/05/24 10:52:55;;;;;;;5.65;1.30;;;31.90;36.50;;;;;;5038618;28;20070;-81
2022/05/24 10:55:26;;;;;;;7.53;1.52;;;31.50;35.50;;;;;;5073036;28;20112;-79
2022/05/24 10:58:03;;;;;;;6.43;1.70;;;31.60;36.70;;;;;;5073494;28;20104;-80
2022/05/24 11:00:44;;;;;;;12.55;2.50;;;31.60;37.20;;;;;;5072492;28;20028;-79
2022/05/24 11:03:17;;;;;;;7.50;1.92;;;31.70;36.40;;;;;;5072943;28;20024;-78
2022/05/24 11:05:54;;;;;;;7.22;1.60;;;31.60;37.40;;;;;;5072662;28;20056;-79
2022/05/24 11:08:29;;;;;;;5.63;1.80;;;31.70;37.40;;;;;;5072562;28;20404;-79
2022/05/24 11:11:00;;;;;;;6.40;1.60;;;31.80;37.20;;;;;;5073026;28;20017;-79
2022/05/24 11:13:46;;;;;;;7.65;1.83;;;31.70;37.10;;;;;;5072121;28;20051;-80
2022/05/24 11:16:15;;;;;;;;;;;31.80;37.20;;;;;;5054460;28;20025;-81
2022/05/24 11:18:42;;;;;;;6.15;1.70;;;31.60;36.90;;;;;;5073126;28;19904;-80
2022/05/24 11:21:32;;;;;;;6.72;1.60;;;31.80;38.00;;;;;;5073161;28;20096;-80
2022/05/24 11:24:08;;;;;;;6.80;1.60;;;31.70;38.00;;;;;;5073201;28;20025;-80
2022/05/24 11:26:39;;;;;;;6.15;1.90;;;31.80;39.90;;;;;;5073339;28;20115;-79
2022/05/24 11:29:28;;;;;;;3.80;1.40;;;31.80;40.40;;;;;;5073306;28;20430;-79
2022/05/24 11:32:08;;;;;;;4.03;1.40;;;31.80;40.70;;;;;;5072740;28;20107;-80
2022/05/24 11:34:55;;;;;;;7.38;1.65;;;31.80;40.70;;;;;;5072796;28;20016;-78
2022/05/24 11:37:26;;;;;;;7.18;1.58;;;31.70;40.40;;;;;;5073063;28;20109;-83
2022/05/24 11:39:53;;;;;;;5.10;1.30;;;31.80;41.80;;;;;;5072915;28;20041;-84
2022/05/24 11:42:24;;;;;;;8.05;1.88;;;31.90;42.70;;;;;;5073095;28;20059;-85
2022/05/24 11:44:52;;;;;;;6.13;1.45;;;31.90;44.10;;;;;;5054080;28;20024;-87
2022/05/24 11:47:39;;;;;;;4.57;1.58;;;31.80;45.20;;;;;;5072579;28;20162;-85
2022/05/24 11:50:09;;;;;;;5.05;1.58;;;31.80;44.90;;;;;;5073006;28;20448;-88
2022/05/24 11:53:03;;;;;;;4.65;1.45;;;31.70;45.30;;;;;;5074518;28;20529;-91
2022/05/24 11:55:47;;;;;;;5.78;1.35;;;31.80;46.20;;;;;;5076402;28;20032;-89
2022/05/24 11:58:23;;;;;;;5.18;1.67;;;31.80;46.20;;;;;;5073793;28;20111;-88
2022/05/24 12:01:16;;;;;;;7.72;1.58;;;31.80;45.70;;;;;;5073240;28;20081;-89
2022/05/24 12:10:17;;;;;;;4.35;1.30;;;31.60;44.30;;;;;;5074461;28;20032;-90
2022/05/24 12:12:51;;;;;;;6.75;1.52;;;31.40;44.90;;;;;;5073699;28;20112;-89
2022/05/24 12:15:29;;;;;;;4.00;1.38;;;31.30;43.80;;;;;;5073213;28;20063;-89
2022/05/24 12:17:59;;;;;;;4.53;1.40;;;31.30;42.20;;;;;;5073299;28;20029;-89
2022/05/24 12:20:34;;;;;;;4.63;1.70;;;31.00;40.50;;;;;;5071925;28;20035;-88
2022/05/24 12:23:32;;;;;;;7.10;1.50;;;31.00;41.50;;;;;;5071880;28;20113;-89
2022/05/24 12:26:03;;;;;;;4.18;1.40;;;31.00;38.90;;;;;;5073428;28;20255;-89
2022/05/24 12:28:32;;;;;;;5.50;1.50;;;30.90;41.70;;;;;;5073552;28;20100;-89
2022/05/24 12:31:11;;;;;;;5.60;1.33;;;30.80;44.00;;;;;;5073492;28;20066;-90
2022/05/24 12:34:13;;;;;;;3.95;1.73;;;30.90;43.20;;;;;;5054963;28;20507;-89
2022/05/24 12:36:43;;;;;;;6.45;1.30;;;30.90;45.40;;;;;;5055532;28;20033;-83
2022/05/24 12:39:09;;;;;;;5.93;1.40;;;30.90;45.40;;;;;;5074698;28;20028;-88
2022/05/24 12:41:37;;;;;;;4.75;1.35;;;30.90;45.80;;;;;;5073478;28;20044;-88
2022/05/24 12:44:21;;;;;;;7.32;1.60;;;31.00;44.60;;;;;;5073589;28;20039;-88
2022/05/24 12:46:53;;;;;;;5.60;1.40;;;31.10;43.70;;;;;;5073846;28;20024;-90
2022/05/24 12:49:27;;;;;;;4.90;1.48;;;31.20;43.60;;;;;;5055553;28;20488;-90
2022/05/24 12:52:16;;;;;;;3.47;1.35;;;31.10;44.10;;;;;;5073024;28;20322;-88
2022/05/24 12:54:50;;;;;;;5.72;1.30;;;31.10;44.10;;;;;;5054675;28;20065;-89
2022/05/24 12:57:22;;;;;;;4.93;1.42;;;31.20;43.00;;;;;;5075737;28;20032;-89
2022/05/24 13:00:08;;;;;;;3.90;1.10;;;30.90;41.20;;;;;;5076704;28;20021;-89
2022/05/24 13:02:46;;;;;;;5.97;1.38;;;30.90;41.30;;;;;;5076806;28;20030;-90
2022/05/24 13:05:26;;;;;;;8.80;1.77;;;30.50;41.20;;;;;;5058740;28;20025;-90
2022/05/24 13:07:59;;;;;;;7.07;1.40;;;30.30;42.20;;;;;;5037938;28;20041;-90
2022/05/24 13:10:35;;;;;;;5.40;1.20;;;30.30;42.40;;;;;;5036916;28;20107;-89
2022/05/24 13:13:11;;;;;;;7.32;1.33;;;30.30;43.80;;;;;;5037252;28;20021;-90
2022/05/24 13:15:41;;;;;;;6.00;1.30;;;30.10;42.90;;;;;;5035947;28;20022;-90
2022/05/24 13:18:12;;;;;;;4.38;1.70;;;30.10;40.40;;;;;;5037300;28;20029;-90
2022/05/24 13:20:51;;;;;;;5.13;1.42;;;30.10;39.80;;;;;;5035267;28;20030;-89
2022/05/24 13:23:17;;;;;;;7.00;1.30;;;30.30;40.00;;;;;;5036815;28;20056;-85
2022/05/24 13:25:55;;;;;;;7.20;1.50;;;30.40;38.70;;;;;;5037414;28;20040;-90
2022/05/24 13:28:48;;;;;;;7.07;1.27;;;30.70;37.70;;;;;;5036696;28;20061;-90
2022/05/24 13:34:25;;;;;;;4.72;1.30;;;31.20;36.80;;;;;;5037336;28;20098;-93
2022/05/24 13:36:53;;;;;;;3.22;0.90;;;31.40;36.00;;;;;;5035653;28;20385;-88
2022/05/24 13:39:26;;;;;;;3.55;1.13;;;31.20;35.90;;;;;;5037014;28;20028;-88
2022/05/24 13:41:55;;;;;;;7.80;1.33;;;31.40;34.60;;;;;;5036546;28;20021;-86
2022/05/24 13:44:26;;;;;;;15.07;1.50;;;31.20;35.20;;;;;;5036126;28;20539;-88
2022/05/24 13:46:58;;;;;;;5.57;1.17;;;31.30;35.40;;;;;;5036882;28;20033;-92
2022/05/24 13:49:43;;;;;;;3.13;1.25;;;31.40;32.70;;;;;;5034995;28;20029;-88
2022/05/24 13:52:18;;;;;;;9.03;1.30;;;31.40;32.80;;;;;;5034643;28;20056;-89
2022/05/24 13:54:45;;;;;;;5.07;1.07;;;31.40;33.50;;;;;;5035658;28;20030;-86
2022/05/24 13:57:28;;;;;;;3.40;1.08;;;31.60;34.50;;;;;;5035101;28;20033;-91
2022/05/24 14:00:11;;;;;;;6.43;1.10;;;31.50;34.60;;;;;;5035584;28;20021;-85